Time;durP1;ratioP1;P1;durP2;ratioP2;P2;SDS_P1;SDS_P2;PMS_P1;PMS_P2;Temp;Humidity;BMP_temperature;BMP_pressure;BME280_temperature;BME280_humidity;BME280_pressure;Samples;Min_cycle;Max_cycle;Signal;HPM_P1;HPM_P2
2021/10/03 00:02:12;;;;;;;5.28;3.53;;;;;;;;;;4999897;28;20172;-72
2021/10/03 00:04:40;;;;;;;5.93;3.42;;;;;;;;;;5010920;28;20458;-72
2021/10/03 00:07:06;;;;;;;5.35;3.38;;;;;;;;;;5008776;28;20038;-72
2021/10/03 00:09:32;;;;;;;7.00;3.65;;;;;;;;;;5008932;28;20046;-72
2021/10/03 00:11:59;;;;;;;6.05;3.53;;;;;;;;;;5010815;28;20176;-72
2021/10/03 00:14:25;;;;;;;5.82;3.30;;;;;;;;;;5011869;28;20136;-72
2021/10/03 00:16:52;;;;;;;4.93;3.13;;;;;;;;;;5009390;28;20050;-72
2021/10/03 00:19:18;;;;;;;5.82;3.03;;;;;;;;;;5009568;28;20050;-72
2021/10/03 00:21:45;;;;;;;4.95;3.08;;;;;;;;;;5005157;28;20067;-72
2021/10/03 00:24:12;;;;;;;6.85;2.88;;;;;;;;;;5009553;28;20137;-72
2021/10/03 00:26:39;;;;;;;9.35;3.03;;;;;;;;;;5011707;28;20046;-72
2021/10/03 00:29:06;;;;;;;4.93;2.78;;;;;;;;;;5009748;28;20410;-72
2021/10/03 00:31:32;;;;;;;5.35;2.92;;;;;;;;;;5010309;28;20030;-72
2021/10/03 00:33:58;;;;;;;6.78;2.90;;;;;;;;;;5006911;28;20060;-72
2021/10/03 00:36:24;;;;;;;4.30;2.78;;;;;;;;;;4996679;28;20042;-72
2021/10/03 00:38:51;;;;;;;4.50;2.60;;;;;;;;;;5001998;28;20469;-72
2021/10/03 00:41:17;;;;;;;3.63;2.10;;;;;;;;;;5010145;28;20486;-72
2021/10/03 00:43:43;;;;;;;5.90;2.47;;;;;;;;;;5008924;28;20050;-72
2021/10/03 00:46:09;;;;;;;4.07;1.85;;;;;;;;;;5008977;28;20132;-72
2021/10/03 00:48:35;;;;;;;3.45;1.63;;;;;;;;;;5009467;28;20042;-72
2021/10/03 00:51:02;;;;;;;4.20;2.03;;;;;;;;;;5008414;28;20069;-72
2021/10/03 00:53:29;;;;;;;3.50;1.52;;;;;;;;;;5010441;28;20128;-72
2021/10/03 00:55:56;;;;;;;2.92;1.58;;;;;;;;;;5010211;28;20076;-72
2021/10/03 00:58:22;;;;;;;3.17;1.80;;;;;;;;;;5010378;28;20049;-72
2021/10/03 01:00:49;;;;;;;3.47;1.80;;;;;;;;;;5010003;28;20109;-72
2021/10/03 01:03:16;;;;;;;3.60;1.60;;;;;;;;;;5009322;28;20390;-72
2021/10/03 01:05:42;;;;;;;3.03;1.83;;;;;;;;;;5011509;28;20125;-72
2021/10/03 01:08:08;;;;;;;2.90;1.40;;;;;;;;;;5010533;28;20084;-72
2021/10/03 01:10:34;;;;;;;4.38;1.88;;;;;;;;;;5008852;28;20426;-72
2021/10/03 01:13:05;;;;;;;3.65;1.55;;;;;;;;;;5009850;28;20077;-72
2021/10/03 01:15:34;;;;;;;3.30;1.73;;;;;;;;;;5009650;28;20049;-72
2021/10/03 01:18:01;;;;;;;5.60;1.50;;;;;;;;;;5008735;28;20049;-72
2021/10/03 01:20:27;;;;;;;3.15;1.40;;;;;;;;;;5005801;28;20515;-72
2021/10/03 01:22:53;;;;;;;4.97;1.65;;;;;;;;;;5006096;28;20213;-72
2021/10/03 01:25:20;;;;;;;2.97;1.50;;;;;;;;;;5008871;28;20052;-72
2021/10/03 01:27:46;;;;;;;3.72;1.52;;;;;;;;;;5009968;28;20505;-72
2021/10/03 01:30:15;;;;;;;3.78;1.45;;;;;;;;;;5005272;28;20037;-72
2021/10/03 01:32:41;;;;;;;5.63;1.38;;;;;;;;;;5008591;28;20371;-72
2021/10/03 01:35:08;;;;;;;2.97;1.35;;;;;;;;;;5009391;28;20049;-72
2021/10/03 01:37:34;;;;;;;4.18;1.55;;;;;;;;;;5007103;28;20061;-72
2021/10/03 01:40:03;;;;;;;3.70;1.50;;;;;;;;;;5009206;28;20545;-72
2021/10/03 01:42:29;;;;;;;3.63;1.35;;;;;;;;;;4996846;28;20184;-72
2021/10/03 01:44:55;;;;;;;3.10;1.85;;;;;;;;;;5000871;28;20045;-72
2021/10/03 01:47:21;;;;;;;6.20;1.58;;;;;;;;;;4994828;28;20042;-72
2021/10/03 01:49:48;;;;;;;4.38;1.73;;;;;;;;;;5006282;28;20316;-72
2021/10/03 01:52:15;;;;;;;7.15;1.70;;;;;;;;;;5008012;28;20049;-72
2021/10/03 01:54:41;;;;;;;3.10;1.33;;;;;;;;;;5008211;28;20042;-72
2021/10/03 01:57:07;;;;;;;3.92;1.60;;;;;;;;;;4996988;28;20080;-72
2021/10/03 01:59:33;;;;;;;3.60;2.00;;;;;;;;;;4990347;28;20157;-72
2021/10/03 02:02:00;;;;;;;3.15;1.40;;;;;;;;;;4990845;28;20053;-72
2021/10/03 02:04:27;;;;;;;2.25;1.30;;;;;;;;;;4990552;28;20375;-72
2021/10/03 02:06:55;;;;;;;2.97;1.42;;;;;;;;;;4991319;28;20050;-72
2021/10/03 02:09:24;;;;;;;6.63;1.80;;;;;;;;;;4990435;28;20489;-72
2021/10/03 02:11:51;;;;;;;3.53;1.42;;;;;;;;;;4992986;28;20053;-72
2021/10/03 02:14:19;;;;;;;2.78;1.35;;;;;;;;;;4990330;28;20054;-72
2021/10/03 02:16:45;;;;;;;2.88;1.50;;;;;;;;;;4988533;28;20038;-72
2021/10/03 02:19:12;;;;;;;3.00;1.25;;;;;;;;;;4991762;28;20048;-72
2021/10/03 02:21:38;;;;;;;4.32;1.52;;;;;;;;;;4995632;28;20050;-72
2021/10/03 02:24:06;;;;;;;3.00;1.50;;;;;;;;;;4996065;28;20136;-72
2021/10/03 02:26:33;;;;;;;4.15;1.70;;;;;;;;;;4995729;28;20054;-72
2021/10/03 02:28:59;;;;;;;2.95;1.60;;;;;;;;;;4995302;28;20132;-72
2021/10/03 02:31:25;;;;;;;2.83;1.50;;;;;;;;;;4976352;28;20394;-72
2021/10/03 02:33:52;;;;;;;3.90;2.08;;;;;;;;;;4994262;28;20457;-72
2021/10/03 02:36:20;;;;;;;3.15;1.67;;;;;;;;;;4992267;28;20125;-72
2021/10/03 02:38:46;;;;;;;3.67;2.03;;;;;;;;;;4995565;28;20486;-72
2021/10/03 02:41:13;;;;;;;4.55;2.25;;;;;;;;;;4990998;28;20045;-72
2021/10/03 02:43:40;;;;;;;6.45;3.08;;;;;;;;;;4994790;28;20072;-72
2021/10/03 02:46:07;;;;;;;5.47;3.08;;;;;;;;;;5010691;28;20053;-72
2021/10/03 02:48:36;;;;;;;4.30;2.97;;;;;;;;;;5013125;28;20093;-72
2021/10/03 02:51:02;;;;;;;5.13;2.90;;;;;;;;;;4994554;28;20053;-72
2021/10/03 02:53:28;;;;;;;5.05;2.85;;;;;;;;;;4995160;28;20462;-72
2021/10/03 02:55:54;;;;;;;4.53;2.70;;;;;;;;;;4991817;28;20490;-72
2021/10/03 02:58:21;;;;;;;5.18;2.55;;;;;;;;;;5009134;28;20120;-72
2021/10/03 03:00:49;;;;;;;6.60;2.72;;;;;;;;;;5010672;28;20049;-72
2021/10/03 03:03:15;;;;;;;4.15;2.13;;;;;;;;;;5021459;28;20050;-72
2021/10/03 03:05:41;;;;;;;7.28;2.38;;;;;;;;;;5001389;28;20052;-72
2021/10/03 03:08:07;;;;;;;4.60;2.25;;;;;;;;;;5016452;28;20128;-72
2021/10/03 03:10:34;;;;;;;5.22;2.20;;;;;;;;;;5010754;28;20082;-72
2021/10/03 03:13:01;;;;;;;3.55;1.50;;;;;;;;;;5007180;28;20173;-72
2021/10/03 03:15:27;;;;;;;3.88;1.40;;;;;;;;;;5011565;28;20100;-72
2021/10/03 03:17:53;;;;;;;2.38;1.30;;;;;;;;;;5007973;28;20505;-72
2021/10/03 03:20:20;;;;;;;3.47;1.35;;;;;;;;;;5009321;28;20048;-72
2021/10/03 03:22:46;;;;;;;3.92;1.45;;;;;;;;;;5008915;28;20095;-72
2021/10/03 03:25:13;;;;;;;4.35;1.60;;;;;;;;;;5010627;28;20373;-72
2021/10/03 03:27:39;;;;;;;7.38;1.40;;;;;;;;;;5010860;28;20450;-72
2021/10/03 03:30:06;;;;;;;7.38;1.60;;;;;;;;;;5006510;28;20046;-72
2021/10/03 03:32:32;;;;;;;4.85;1.17;;;;;;;;;;5007065;28;20041;-72
2021/10/03 03:34:58;;;;;;;6.60;1.10;;;;;;;;;;5010531;28;20489;-72
2021/10/03 03:37:24;;;;;;;6.93;1.20;;;;;;;;;;5009076;28;20037;-72
2021/10/03 03:39:51;;;;;;;7.15;1.60;;;;;;;;;;5009923;28;20458;-72
2021/10/03 03:42:17;;;;;;;5.82;1.27;;;;;;;;;;5003347;28;20050;-72
2021/10/03 03:44:43;;;;;;;7.97;1.38;;;;;;;;;;5002551;28;20107;-71
2021/10/03 03:47:09;;;;;;;6.90;1.40;;;;;;;;;;5007746;28;20497;-72
2021/10/03 03:49:36;;;;;;;8.57;1.60;;;;;;;;;;5006844;28;20061;-72
2021/10/03 03:52:02;;;;;;;7.55;1.33;;;;;;;;;;4994175;28;20129;-72
2021/10/03 03:54:28;;;;;;;4.65;1.20;;;;;;;;;;4994780;28;20061;-72
2021/10/03 03:56:55;;;;;;;6.32;2.15;;;;;;;;;;4999647;28;20054;-72
2021/10/03 03:59:25;;;;;;;5.93;1.20;;;;;;;;;;4983365;28;20049;-71
2021/10/03 04:01:51;;;;;;;5.75;1.33;;;;;;;;;;4989884;28;20042;-72
2021/10/03 04:04:17;;;;;;;8.30;1.70;;;;;;;;;;5002185;28;20042;-72
2021/10/03 04:06:44;;;;;;;5.72;1.23;;;;;;;;;;4992270;28;20054;-72
2021/10/03 04:09:10;;;;;;;7.97;1.60;;;;;;;;;;5009695;28;20045;-72
2021/10/03 04:11:36;;;;;;;5.03;1.33;;;;;;;;;;4990118;28;20124;-71
2021/10/03 04:14:02;;;;;;;3.83;1.17;;;;;;;;;;4992164;28;20111;-72
2021/10/03 04:16:28;;;;;;;5.13;1.30;;;;;;;;;;4992489;28;20049;-72
2021/10/03 04:18:55;;;;;;;5.38;1.50;;;;;;;;;;4991419;28;20370;-72
2021/10/03 04:21:21;;;;;;;4.50;1.70;;;;;;;;;;4991114;28;20057;-72
2021/10/03 04:23:47;;;;;;;5.63;1.90;;;;;;;;;;4992322;28;20470;-72
2021/10/03 04:26:13;;;;;;;7.07;1.50;;;;;;;;;;4993323;28;20457;-72
2021/10/03 04:28:39;;;;;;;6.93;1.77;;;;;;;;;;5000447;28;20057;-72
2021/10/03 04:31:05;;;;;;;7.80;1.85;;;;;;;;;;4991481;28;20137;-72
2021/10/03 04:33:32;;;;;;;7.70;1.88;;;;;;;;;;5011669;28;20121;-72
2021/10/03 04:35:58;;;;;;;6.35;1.83;;;;;;;;;;5004900;28;20074;-72
2021/10/03 04:38:24;;;;;;;7.68;2.08;;;;;;;;;;4997650;28;20050;-72
2021/10/03 04:40:50;;;;;;;8.05;2.05;;;;;;;;;;4987306;28;21236;-72
2021/10/03 04:43:16;;;;;;;7.00;2.10;;;;;;;;;;5010949;28;20050;-72
2021/10/03 04:45:42;;;;;;;6.95;2.10;;;;;;;;;;4989672;28;20050;-76
2021/10/03 04:48:09;;;;;;;8.10;2.20;;;;;;;;;;4989918;28;20509;-71
2021/10/03 04:50:35;;;;;;;8.63;1.98;;;;;;;;;;5006710;28;20056;-71
2021/10/03 04:53:01;;;;;;;7.53;2.00;;;;;;;;;;4986372;28;20057;-76
2021/10/03 04:55:28;;;;;;;8.15;1.83;;;;;;;;;;5000623;28;20394;-72
2021/10/03 04:57:54;;;;;;;9.10;2.30;;;;;;;;;;4990129;28;20057;-71
2021/10/03 05:00:20;;;;;;;11.60;1.90;;;;;;;;;;4991330;28;20243;-71
2021/10/03 05:02:46;;;;;;;14.80;2.83;;;;;;;;;;4989354;28;20048;-71
2021/10/03 05:05:13;;;;;;;11.18;2.17;;;;;;;;;;4988286;28;20513;-71
2021/10/03 05:07:40;;;;;;;10.95;2.20;;;;;;;;;;5000723;28;20046;-71
2021/10/03 05:10:06;;;;;;;11.60;2.75;;;;;;;;;;4959816;28;20081;-71
2021/10/03 05:12:32;;;;;;;11.05;2.38;;;;;;;;;;4990584;28;20042;-71
2021/10/03 05:14:59;;;;;;;6.18;1.33;;;;;;;;;;4989368;28;20068;-72
2021/10/03 05:17:25;;;;;;;11.88;1.70;;;;;;;;;;4998007;28;20085;-71
2021/10/03 05:19:51;;;;;;;13.93;2.00;;;;;;;;;;4991573;28;20155;-71
2021/10/03 05:22:18;;;;;;;9.32;2.40;;;;;;;;;;4990538;28;20513;-72
2021/10/03 05:24:44;;;;;;;9.23;2.17;;;;;;;;;;4989516;28;20084;-71
2021/10/03 05:27:10;;;;;;;9.15;2.03;;;;;;;;;;5000444;28;20338;-71
2021/10/03 05:29:36;;;;;;;15.13;2.80;;;;;;;;;;5002692;28;20038;-72
2021/10/03 05:32:02;;;;;;;9.25;2.30;;;;;;;;;;4988904;28;20116;-71
2021/10/03 05:34:28;;;;;;;30.52;4.35;;;;;;;;;;4992341;28;20053;-72
2021/10/03 05:36:54;;;;;;;13.50;3.17;;;;;;;;;;4990104;28;20057;-71
2021/10/03 05:39:21;;;;;;;18.02;3.72;;;;;;;;;;4989870;28;20045;-71
2021/10/03 05:41:47;;;;;;;10.57;2.88;;;;;;;;;;5003927;28;20068;-71
2021/10/03 05:44:13;;;;;;;13.02;3.20;;;;;;;;;;4990381;28;20046;-71
2021/10/03 05:46:39;;;;;;;16.15;3.40;;;;;;;;;;4989812;28;20069;-71
2021/10/03 05:49:05;;;;;;;17.67;3.25;;;;;;;;;;4992209;28;20124;-71
2021/10/03 05:51:33;;;;;;;12.05;2.45;;;;;;;;;;4992007;28;20046;-73
2021/10/03 05:54:00;;;;;;;13.25;1.90;;;;;;;;;;4992411;28;20053;-71
2021/10/03 05:56:26;;;;;;;12.73;2.13;;;;;;;;;;4994209;28;20077;-71
2021/10/03 05:58:52;;;;;;;9.68;1.70;;;;;;;;;;5028626;28;20109;-71
2021/10/03 06:01:18;;;;;;;10.10;2.53;;;;;;;;;;5013166;28;20045;-71
2021/10/03 06:03:44;;;;;;;11.05;2.15;;;;;;;;;;5014001;28;20164;-71
2021/10/03 06:06:10;;;;;;;9.50;2.35;;;;;;;;;;5012920;28;20038;-71
2021/10/03 06:08:37;;;;;;;11.13;2.10;;;;;;;;;;5011558;28;20100;-71
2021/10/03 06:11:03;;;;;;;9.50;2.10;;;;;;;;;;5029297;28;20077;-71
2021/10/03 06:13:29;;;;;;;8.68;1.70;;;;;;;;;;5012064;28;20042;-72
2021/10/03 06:15:57;;;;;;;6.20;1.27;;;;;;;;;;5014458;28;20462;-72
2021/10/03 06:18:24;;;;;;;7.78;1.02;;;;;;;;;;5012535;28;20577;-72
2021/10/03 06:20:50;;;;;;;7.00;1.10;;;;;;;;;;5012549;28;20128;-71
2021/10/03 06:23:16;;;;;;;10.63;1.38;;;;;;;;;;5012790;28;20053;-71
2021/10/03 06:25:42;;;;;;;8.63;1.50;;;;;;;;;;5013865;28;20046;-80
2021/10/03 06:28:09;;;;;;;6.75;1.55;;;;;;;;;;5011640;28;20053;-85
2021/10/03 06:30:35;;;;;;;9.30;1.50;;;;;;;;;;5011701;28;20046;-76
2021/10/03 06:33:02;;;;;;;10.00;1.40;;;;;;;;;;5013962;28;20112;-80
2021/10/03 06:35:28;;;;;;;7.68;1.00;;;;;;;;;;5011690;28;20049;-80
2021/10/03 06:37:55;;;;;;;10.55;1.58;;;;;;;;;;5012252;28;20057;-80
2021/10/03 06:40:22;;;;;;;7.20;1.58;;;;;;;;;;5011416;28;20116;-80
2021/10/03 06:42:48;;;;;;;11.07;1.27;;;;;;;;;;5011827;28;20156;-80
2021/10/03 06:45:15;;;;;;;7.88;1.50;;;;;;;;;;5013347;28;20062;-80
2021/10/03 06:47:41;;;;;;;9.60;1.10;;;;;;;;;;5012369;28;20050;-80
2021/10/03 06:50:07;;;;;;;9.07;1.38;;;;;;;;;;5012523;28;20088;-79
2021/10/03 06:52:34;;;;;;;4.93;1.05;;;;;;;;;;5012410;28;20500;-81
2021/10/03 06:55:00;;;;;;;8.68;1.27;;;;;;;;;;5010691;28;20042;-81
2021/10/03 06:57:26;;;;;;;4.72;1.00;;;;;;;;;;5011047;28;20057;-81
2021/10/03 06:59:52;;;;;;;3.60;0.90;;;;;;;;;;5011135;28;20050;-81
2021/10/03 07:02:18;;;;;;;3.90;1.25;;;;;;;;;;4994905;28;20390;-81
2021/10/03 07:04:44;;;;;;;7.68;1.20;;;;;;;;;;5011144;28;20053;-80
2021/10/03 07:07:11;;;;;;;7.40;1.23;;;;;;;;;;5007750;28;20155;-79
2021/10/03 07:09:37;;;;;;;7.05;1.00;;;;;;;;;;5010205;28;20148;-77
2021/10/03 07:12:03;;;;;;;11.35;1.13;;;;;;;;;;5012028;28;20036;-77
2021/10/03 07:14:29;;;;;;;5.28;1.30;;;;;;;;;;5011050;28;20508;-78
2021/10/03 07:16:56;;;;;;;5.45;1.40;;;;;;;;;;5026972;28;20074;-77
2021/10/03 07:19:22;;;;;;;5.43;1.15;;;;;;;;;;5009081;28;20054;-76
2021/10/03 07:21:48;;;;;;;8.27;1.15;;;;;;;;;;5012403;28;20046;-79
2021/10/03 07:24:14;;;;;;;7.13;1.30;;;;;;;;;;5012066;28;20447;-75
2021/10/03 07:26:41;;;;;;;8.00;1.35;;;;;;;;;;5004497;28;20046;-78
2021/10/03 07:29:07;;;;;;;4.63;1.05;;;;;;;;;;5011888;28;20048;-78
2021/10/03 07:31:34;;;;;;;6.53;1.33;;;;;;;;;;5002525;28;20049;-79
2021/10/03 07:34:01;;;;;;;9.55;1.30;;;;;;;;;;5007858;28;20050;-79
2021/10/03 07:36:28;;;;;;;10.13;1.67;;;;;;;;;;5008745;28;20104;-79
2021/10/03 07:38:54;;;;;;;9.45;1.20;;;;;;;;;;5011110;28;20084;-79
2021/10/03 07:41:21;;;;;;;8.50;1.30;;;;;;;;;;4987137;28;20044;-79
2021/10/03 07:43:49;;;;;;;9.50;1.40;;;;;;;;;;5010125;28;20049;-79
2021/10/03 07:46:16;;;;;;;8.63;1.35;;;;;;;;;;5007049;28;20136;-79
2021/10/03 07:48:42;;;;;;;5.05;1.20;;;;;;;;;;5012331;28;20495;-80
2021/10/03 07:51:10;;;;;;;7.53;1.05;;;;;;;;;;5010430;28;20445;-80
2021/10/03 07:53:36;;;;;;;7.22;1.13;;;;;;;;;;5010305;28;20081;-80
2021/10/03 07:56:03;;;;;;;8.45;1.30;;;;;;;;;;5009776;28;20053;-79
2021/10/03 07:58:29;;;;;;;5.97;1.05;;;;;;;;;;5009958;28;20048;-77
2021/10/03 08:00:56;;;;;;;5.18;1.33;;;;;;;;;;5009187;28;20080;-81
2021/10/03 08:03:22;;;;;;;6.68;1.23;;;;;;;;;;4992341;28;20531;-75
2021/10/03 08:05:48;;;;;;;6.88;1.25;;;;;;;;;;5013066;28;20123;-78
2021/10/03 08:08:15;;;;;;;5.38;1.38;;;;;;;;;;5009840;28;20077;-77
2021/10/03 08:10:42;;;;;;;5.82;1.25;;;;;;;;;;5012843;28;20054;-77
2021/10/03 08:13:11;;;;;;;7.60;1.58;;;;;;;;;;5008520;28;20053;-78
2021/10/03 08:15:39;;;;;;;4.18;1.25;;;;;;;;;;5016344;28;20494;-77
2021/10/03 08:18:05;;;;;;;9.27;1.50;;;;;;;;;;5008985;28;20156;-82
2021/10/03 08:20:32;;;;;;;9.38;1.52;;;;;;;;;;5002657;28;20046;-77
2021/10/03 08:22:58;;;;;;;4.07;1.38;;;;;;;;;;5024230;28;20050;-78
2021/10/03 08:25:24;;;;;;;8.32;1.48;;;;;;;;;;5009245;28;20398;-77
2021/10/03 08:27:51;;;;;;;3.67;1.00;;;;;;;;;;5009331;28;20068;-77
2021/10/03 08:30:17;;;;;;;11.23;1.40;;;;;;;;;;5010350;28;20060;-77
2021/10/03 08:32:43;;;;;;;13.75;1.52;;;;;;;;;;5010761;28;20048;-77
2021/10/03 08:35:10;;;;;;;8.23;1.23;;;;;;;;;;5009492;28;20069;-77
2021/10/03 08:37:37;;;;;;;5.63;1.30;;;;;;;;;;5010438;28;20057;-77
2021/10/03 08:40:04;;;;;;;7.65;1.27;;;;;;;;;;5010067;28;20127;-77
2021/10/03 08:42:32;;;;;;;8.43;1.20;;;;;;;;;;5009605;28;20081;-77
2021/10/03 08:44:58;;;;;;;10.35;1.75;;;;;;;;;;5009835;28;20049;-77
2021/10/03 08:47:25;;;;;;;9.00;1.70;;;;;;;;;;5009555;28;20046;-77
2021/10/03 08:49:54;;;;;;;4.22;1.15;;;;;;;;;;5009385;28;20136;-77
2021/10/03 08:52:24;;;;;;;5.18;1.00;;;;;;;;;;5010159;28;20100;-77
2021/10/03 08:54:51;;;;;;;8.10;1.40;;;;;;;;;;5010927;28;20084;-77
2021/10/03 08:57:17;;;;;;;4.60;1.13;;;;;;;;;;5003550;28;20125;-77
2021/10/03 09:00:02;;;;;;;7.05;1.13;;;;;;;;;;5001242;28;20041;-77
2021/10/03 09:02:28;;;;;;;5.95;1.33;;;;;;;;;;5001273;28;20129;-77
2021/10/03 09:04:59;;;;;;;5.15;1.17;;;;;;;;;;5000676;28;20148;-77
2021/10/03 09:07:25;;;;;;;7.97;1.50;;;;;;;;;;4980352;28;20042;-77
2021/10/03 09:09:52;;;;;;;8.23;1.60;;;;;;;;;;4986212;28;20074;-77
2021/10/03 09:12:26;;;;;;;6.10;1.30;;;;;;;;;;4984450;28;20153;-77
2021/10/03 09:14:52;;;;;;;;;;;;;;;;;;4986316;28;20129;-77
2021/10/03 09:17:18;;;;;;;6.00;1.30;;;;;;;;;;4983074;28;20281;-77
2021/10/03 09:20:03;;;;;;;7.97;1.50;;;;;;;;;;4987043;28;20073;-77
2021/10/03 09:22:29;;;;;;;4.22;1.17;;;;;;;;;;4983234;28;20053;-77
2021/10/03 09:24:56;;;;;;;5.72;1.42;;;;;;;;;;4984587;28;20049;-77
2021/10/03 09:27:22;;;;;;;5.70;1.10;;;;;;;;;;4999725;28;20094;-77
2021/10/03 09:29:48;;;;;;;6.43;1.00;;;;;;;;;;4981810;28;20484;-77
2021/10/03 09:32:15;;;;;;;1.98;0.80;;;;;;;;;;4981917;28;20046;-77
2021/10/03 09:34:46;;;;;;;7.93;1.15;;;;;;;;;;4982842;28;20065;-77
2021/10/03 09:37:22;;;;;;;8.80;1.30;;;;;;;;;;4981557;28;20050;-77
2021/10/03 09:39:51;;;;;;;4.00;1.30;;;;;;;;;;4977936;28;20042;-77
2021/10/03 09:42:18;;;;;;;6.68;1.30;;;;;;;;;;4995330;28;20042;-77
2021/10/03 09:45:03;;;;;;;4.50;1.38;;;;;;;;;;4981888;28;20047;-77
2021/10/03 09:47:29;;;;;;;4.80;1.30;;;;;;;;;;4982170;28;20054;-77
2021/10/03 09:49:55;;;;;;;4.88;1.17;;;;;;;;;;4983427;28;20134;-77
2021/10/03 09:52:22;;;;;;;11.02;2.17;;;;;;;;;;4983391;28;20093;-77
2021/10/03 09:54:48;;;;;;;4.55;1.20;;;;;;;;;;5002271;28;20056;-77
2021/10/03 09:57:18;;;;;;;7.78;1.38;;;;;;;;;;5003250;28;20081;-77
2021/10/03 09:59:45;;;;;;;5.53;1.20;;;;;;;;;;5003031;28;20096;-77
2021/10/03 10:02:12;;;;;;;3.55;1.05;;;;;;;;;;4992608;28;20053;-77
2021/10/03 10:04:39;;;;;;;6.68;1.20;;;;;;;;;;4992470;28;20046;-77
2021/10/03 10:07:06;;;;;;;5.55;1.38;;;;;;;;;;5006599;28;20486;-77
2021/10/03 10:09:34;;;;;;;6.03;1.30;;;;;;;;;;4992299;28;20053;-77
2021/10/03 10:12:02;;;;;;;5.05;1.73;;;;;;;;;;4992017;28;20443;-77
2021/10/03 10:14:30;;;;;;;10.10;1.52;;;;;;;;;;4992103;28;20092;-77
2021/10/03 10:17:00;;;;;;;10.75;1.95;;;;;;;;;;5010110;28;20052;-77
2021/10/03 10:19:27;;;;;;;4.72;1.45;;;;;;;;;;4975538;28;20077;-77
2021/10/03 10:22:20;;;;;;;5.00;1.60;;;;;;;;;;4997476;28;20156;-77
2021/10/03 10:24:47;;;;;;;8.00;1.85;;;;;;;;;;4991929;28;20414;-77
2021/10/03 10:27:17;;;;;;;4.72;1.60;;;;;;;;;;4991867;28;20042;-77
2021/10/03 10:29:48;;;;;;;8.98;2.30;;;;;;;;;;5010340;28;20155;-77
2021/10/03 10:32:15;;;;;;;8.55;2.63;;;;;;;;;;4989299;28;20049;-77
2021/10/03 10:35:00;;;;;;;4.55;1.65;;;;;;;;;;4991477;28;20236;-77
2021/10/03 10:37:47;;;;;;;6.63;1.98;;;;;;;;;;5008754;28;20046;-77
2021/10/03 10:40:22;;;;;;;6.30;2.20;;;;;;;;;;4992507;28;20056;-77
2021/10/03 10:42:51;;;;;;;8.30;2.42;;;;;;;;;;4996063;28;20084;-77
2021/10/03 10:45:28;;;;;;;5.63;1.88;;;;;;;;;;4995480;28;20100;-77
2021/10/03 10:48:07;;;;;;;9.70;2.60;;;;;;;;;;4994868;28;20408;-77
2021/10/03 10:50:34;;;;;;;6.25;2.33;;;;;;;;;;4995374;28;20045;-77
2021/10/03 10:53:20;;;;;;;7.88;2.00;;;;;;;;;;4995887;28;20125;-77
2021/10/03 10:56:04;;;;;;;4.95;1.75;;;;;;;;;;4994850;28;20511;-77
2021/10/03 10:58:31;;;;;;;6.82;2.25;;;;;;;;;;4995435;28;20497;-77
2021/10/03 11:01:00;;;;;;;8.77;3.13;;;;;;;;;;4994670;28;20073;-73
2021/10/03 11:03:43;;;;;;;5.55;1.77;;;;;;;;;;4977580;28;20504;-72
2021/10/03 11:06:10;;;;;;;5.50;2.00;;;;;;;;;;4994384;28;20046;-73
2021/10/03 11:08:55;;;;;;;7.85;2.10;;;;;;;;;;4989556;28;20042;-73
2021/10/03 11:11:21;;;;;;;9.68;2.88;;;;;;;;;;4994334;28;20050;-73
2021/10/03 11:13:49;;;;;;;8.45;1.83;;;;;;;;;;4989973;28;20037;-73
2021/10/03 11:16:25;;;;;;;6.18;1.58;;;;;;;;;;5011376;28;20046;-73
2021/10/03 11:18:56;;;;;;;5.00;1.40;;;;;;;;;;5007475;28;20050;-73
2021/10/03 11:21:25;;;;;;;3.65;1.42;;;;;;;;;;4994050;28;20417;-73
2021/10/03 11:23:51;;;;;;;8.45;1.30;;;;;;;;;;5005290;28;20096;-73
2021/10/03 11:26:19;;;;;;;8.65;1.80;;;;;;;;;;5008398;28;20061;-73
2021/10/03 11:28:49;;;;;;;6.18;2.00;;;;;;;;;;4995101;28;20402;-72
2021/10/03 11:31:33;;;;;;;7.22;1.55;;;;;;;;;;4993362;28;20111;-73
2021/10/03 11:34:00;;;;;;;6.28;1.50;;;;;;;;;;4993268;28;20042;-73
2021/10/03 11:36:26;;;;;;;5.00;1.38;;;;;;;;;;4993142;28;20486;-72
2021/10/03 11:38:52;;;;;;;11.68;2.55;;;;;;;;;;4990722;28;20069;-72
2021/10/03 11:41:18;;;;;;;5.63;1.40;;;;;;;;;;4996187;28;20172;-72
2021/10/03 11:43:45;;;;;;;4.15;1.33;;;;;;;;;;4989803;28;20113;-72
2021/10/03 11:46:11;;;;;;;7.40;1.70;;;;;;;;;;5009624;28;20046;-75
2021/10/03 11:48:37;;;;;;;7.72;1.42;;;;;;;;;;4976539;28;20164;-75
2021/10/03 11:51:03;;;;;;;5.43;1.33;;;;;;;;;;4990936;28;20402;-73
2021/10/03 11:53:31;;;;;;;7.07;1.73;;;;;;;;;;5011561;28;20034;-73
2021/10/03 11:56:07;;;;;;;4.60;1.48;;;;;;;;;;5010481;28;20077;-73
2021/10/03 11:58:36;;;;;;;7.93;1.70;;;;;;;;;;5008079;28;20457;-72
2021/10/03 12:01:02;;;;;;;10.30;2.00;;;;;;;;;;5007230;28;20244;-72
2021/10/03 12:03:30;;;;;;;7.00;2.33;;;;;;;;;;5009188;28;20042;-72
2021/10/03 12:05:58;;;;;;;6.55;1.90;;;;;;;;;;5008274;28;20084;-73
2021/10/03 12:08:26;;;;;;;9.10;2.25;;;;;;;;;;5009463;28;20080;-73
2021/10/03 12:10:53;;;;;;;6.50;2.10;;;;;;;;;;5010012;28;20049;-72
2021/10/03 12:13:20;;;;;;;12.10;2.88;;;;;;;;;;5004674;28;20547;-72
2021/10/03 12:15:46;;;;;;;7.50;1.77;;;;;;;;;;5007618;28;20524;-73
2021/10/03 12:18:14;;;;;;;8.30;2.38;;;;;;;;;;5010581;28;20044;-73
2021/10/03 12:20:47;;;;;;;11.80;2.85;;;;;;;;;;5008855;28;20053;-72
2021/10/03 12:23:13;;;;;;;9.38;3.58;;;;;;;;;;5008363;28;20049;-73
2021/10/03 12:25:40;;;;;;;7.55;2.67;;;;;;;;;;5008963;28;20053;-73
2021/10/03 12:28:06;;;;;;;6.30;2.97;;;;;;;;;;5009398;28;20113;-73
2021/10/03 12:30:52;;;;;;;10.13;3.58;;;;;;;;;;5011454;28;20050;-72
2021/10/03 12:33:18;;;;;;;7.07;2.80;;;;;;;;;;5010231;28;20042;-73
2021/10/03 12:35:59;;;;;;;5.80;2.97;;;;;;;;;;5010811;28;20038;-73
2021/10/03 12:38:26;;;;;;;10.05;3.35;;;;;;;;;;5009155;28;20049;-73
2021/10/03 12:40:52;;;;;;;7.68;3.22;;;;;;;;;;5008529;28;20046;-73
2021/10/03 12:43:18;;;;;;;10.38;3.22;;;;;;;;;;5010697;28;20137;-77
2021/10/03 12:45:44;;;;;;;12.20;4.07;;;;;;;;;;5008926;28;20557;-73
2021/10/03 12:48:10;;;;;;;8.43;3.55;;;;;;;;;;5010039;28;20046;-73
2021/10/03 12:50:37;;;;;;;10.18;3.72;;;;;;;;;;5010335;28;20050;-73
2021/10/03 12:53:03;;;;;;;9.00;3.03;;;;;;;;;;5010384;28;20100;-73
2021/10/03 12:55:29;;;;;;;7.53;1.60;;;;;;;;;;5007785;28;20049;-73
2021/10/03 12:57:55;;;;;;;5.05;1.20;;;;;;;;;;4992665;28;20042;-72
2021/10/03 13:00:21;;;;;;;4.68;1.13;;;;;;;;;;4990136;28;20044;-74
2021/10/03 13:02:47;;;;;;;7.78;1.40;;;;;;;;;;4984863;28;20520;-73
2021/10/03 13:05:16;;;;;;;3.83;1.20;;;;;;;;;;5006536;28;20152;-73
2021/10/03 13:07:42;;;;;;;10.20;1.23;;;;;;;;;;4988891;28;20050;-72
2021/10/03 13:10:09;;;;;;;5.88;1.00;;;;;;;;;;5007790;28;20049;-73
2021/10/03 13:12:35;;;;;;;3.15;0.90;;;;;;;;;;4991400;28;20122;-73
2021/10/03 13:15:02;;;;;;;3.78;1.23;;;;;;;;;;4991803;28;20078;-73
2021/10/03 13:17:28;;;;;;;3.45;0.93;;;;;;;;;;4991334;28;20057;-73
2021/10/03 13:19:54;;;;;;;8.45;1.35;;;;;;;;;;5009015;28;20088;-73
2021/10/03 13:22:20;;;;;;;3.15;1.05;;;;;;;;;;4991670;28;20437;-73
2021/10/03 13:24:46;;;;;;;6.78;1.55;;;;;;;;;;4991067;28;20057;-73
2021/10/03 13:27:13;;;;;;;4.50;1.05;;;;;;;;;;4992659;28;20056;-73
2021/10/03 13:29:39;;;;;;;4.20;0.77;;;;;;;;;;4985822;28;20046;-73
2021/10/03 13:32:05;;;;;;;1.88;0.60;;;;;;;;;;4991258;28;20056;-73
2021/10/03 13:34:31;;;;;;;1.75;0.60;;;;;;;;;;4986698;28;20344;-72
2021/10/03 13:36:58;;;;;;;3.60;0.80;;;;;;;;;;4990062;28;20042;-72
2021/10/03 13:39:24;;;;;;;4.10;0.70;;;;;;;;;;4988839;28;20046;-73
2021/10/03 13:41:50;;;;;;;3.15;0.63;;;;;;;;;;4988734;28;20081;-72
2021/10/03 13:44:16;;;;;;;2.38;0.68;;;;;;;;;;4990718;28;20048;-72
2021/10/03 13:46:42;;;;;;;2.80;0.80;;;;;;;;;;4993480;28;20054;-73
2021/10/03 13:49:09;;;;;;;4.43;0.90;;;;;;;;;;4993578;28;20050;-72
2021/10/03 13:51:35;;;;;;;2.58;0.95;;;;;;;;;;4979521;28;20042;-73
2021/10/03 13:54:01;;;;;;;2.25;0.85;;;;;;;;;;4991003;28;20038;-73
2021/10/03 13:56:27;;;;;;;3.03;1.38;;;;;;;;;;4994239;28;20100;-73
2021/10/03 13:58:54;;;;;;;3.08;0.82;;;;;;;;;;5007116;28;20054;-73
2021/10/03 14:01:20;;;;;;;4.35;0.90;;;;;;;;;;5008058;28;20494;-73
2021/10/03 14:03:46;;;;;;;3.22;0.80;;;;;;;;;;5008257;28;20046;-73
2021/10/03 14:06:12;;;;;;;3.78;1.00;;;;;;;;;;5007382;28;20046;-77
2021/10/03 14:08:39;;;;;;;2.97;0.90;;;;;;;;;;4991801;28;20132;-77
2021/10/03 14:11:05;;;;;;;2.72;1.00;;;;;;;;;;5005235;28;20049;-77
2021/10/03 14:13:31;;;;;;;6.35;1.40;;;;;;;;;;5022905;28;20039;-76
2021/10/03 14:15:58;;;;;;;2.72;0.90;;;;;;;;;;5008775;28;20124;-76
2021/10/03 14:18:24;;;;;;;4.00;0.90;;;;;;;;;;5008309;28;20132;-77
2021/10/03 14:20:50;;;;;;;2.17;0.80;;;;;;;;;;5007907;28;20054;-77
2021/10/03 14:23:16;;;;;;;3.55;0.80;;;;;;;;;;5010770;28;20567;-76
2021/10/03 14:25:43;;;;;;;2.97;0.80;;;;;;;;;;5011283;28;20092;-76
2021/10/03 14:28:10;;;;;;;4.20;1.27;;;;;;;;;;5003209;28;20041;-78
2021/10/03 14:30:36;;;;;;;3.05;1.10;;;;;;;;;;4986424;28;20066;-76
2021/10/03 14:33:04;;;;;;;3.80;1.40;;;;;;;;;;5007998;28;20048;-77
2021/10/03 14:35:30;;;;;;;4.82;1.65;;;;;;;;;;5012852;28;20141;-77
2021/10/03 14:37:57;;;;;;;3.15;1.15;;;;;;;;;;5014343;28;20042;-77
2021/10/03 14:40:23;;;;;;;3.53;1.20;;;;;;;;;;5011882;28;20076;-77
2021/10/03 14:42:50;;;;;;;3.47;1.20;;;;;;;;;;4996433;28;20117;-77